Time;durP1;ratioP1;P1;durP2;ratioP2;P2;SDS_P1;SDS_P2;PMS_P1;PMS_P2;Temp;Humidity;BMP_temperature;BMP_pressure;BME280_temperature;BME280_humidity;BME280_pressure;Samples;Min_cycle;Max_cycle;Signal;HPM_P1;HPM_P2
2023/09/09 00:01:16;;;;;;;11.20;7.30;;;16.70;99.90;;;;;;7289414;32;20149;-54
2023/09/09 00:05:18;;;;;;;10.57;6.80;;;16.60;99.90;;;;;;7308090;32;20126;-54
2023/09/09 00:09:19;;;;;;;10.32;7.12;;;16.70;99.90;;;;;;7278736;32;20084;-54
2023/09/09 00:13:21;;;;;;;8.02;7.18;;;16.60;99.90;;;;;;7309355;32;20249;-54
2023/09/09 00:17:23;;;;;;;9.48;7.10;;;16.60;99.90;;;;;;7285662;32;20195;-54
2023/09/09 00:21:25;;;;;;;9.20;7.40;;;16.60;99.90;;;;;;7299018;32;20512;-55
2023/09/09 00:25:27;;;;;;;13.98;7.45;;;16.60;99.90;;;;;;7288840;32;20176;-55
2023/09/09 00:29:29;;;;;;;10.20;7.10;;;16.60;99.90;;;;;;7292095;32;20463;-54
2023/09/09 00:33:31;;;;;;;12.10;6.93;;;16.50;99.90;;;;;;7288683;32;20219;-55
2023/09/09 00:37:33;;;;;;;10.98;7.68;;;16.50;99.90;;;;;;7292054;32;20371;-55
2023/09/09 00:41:35;;;;;;;8.95;7.45;;;16.40;99.90;;;;;;7294084;32;20131;-55
2023/09/09 00:45:38;;;;;;;9.52;6.12;;;16.40;99.90;;;;;;7303874;32;20108;-55
2023/09/09 00:49:40;;;;;;;9.68;6.72;;;16.50;99.90;;;;;;7309432;32;20458;-55
2023/09/09 00:53:43;;;;;;;8.57;6.78;;;16.40;99.90;;;;;;7281820;32;20191;-54
2023/09/09 00:57:45;;;;;;;11.77;6.45;;;16.40;99.90;;;;;;7289988;32;20308;-55
2023/09/09 01:01:47;;;;;;;9.35;7.20;;;16.30;99.90;;;;;;7278854;32;20662;-55
2023/09/09 01:05:49;;;;;;;12.23;6.53;;;16.30;99.90;;;;;;7279215;32;20100;-55
2023/09/09 01:09:52;;;;;;;8.43;6.05;;;16.20;99.90;;;;;;7291558;32;20161;-55
2023/09/09 01:13:54;;;;;;;8.00;6.40;;;16.20;99.90;;;;;;7288228;32;20511;-54
2023/09/09 01:17:56;;;;;;;12.23;6.75;;;16.10;99.90;;;;;;7288288;32;20512;-54
2023/09/09 01:22:06;;;;;;;11.50;6.75;;;16.00;99.90;;;;;;7265643;32;20092;-55
2023/09/09 01:26:08;;;;;;;8.73;7.03;;;16.00;99.90;;;;;;7304533;32;20547;-54
2023/09/09 01:30:11;;;;;;;11.07;6.78;;;15.90;99.90;;;;;;7300484;32;20104;-54
2023/09/09 01:34:13;;;;;;;8.35;6.43;;;15.90;99.90;;;;;;7286356;32;20210;-54
2023/09/09 01:38:15;;;;;;;11.57;6.75;;;15.90;99.90;;;;;;7297089;32;20104;-54
2023/09/09 01:42:17;;;;;;;9.98;7.35;;;15.80;99.90;;;;;;7305519;32;20127;-54
2023/09/09 01:46:19;;;;;;;10.85;6.75;;;15.80;99.90;;;;;;7299897;32;20156;-54
2023/09/09 01:50:21;;;;;;;8.38;6.60;;;15.70;99.90;;;;;;7270900;32;20127;-54
2023/09/09 01:54:22;;;;;;;9.50;7.05;;;15.60;99.90;;;;;;7275798;32;20135;-54
2023/09/09 01:58:24;;;;;;;9.82;6.70;;;15.60;99.90;;;;;;7287598;32;20206;-54
2023/09/09 02:02:26;;;;;;;12.27;7.30;;;15.50;99.90;;;;;;7285559;32;20206;-54
2023/09/09 02:06:28;;;;;;;8.55;6.55;;;15.50;99.90;;;;;;7299877;32;20115;-54
2023/09/09 02:10:30;;;;;;;9.35;6.97;;;15.40;99.90;;;;;;7280573;32;20222;-54
2023/09/09 02:14:32;;;;;;;9.27;6.22;;;15.50;99.90;;;;;;7282929;32;20191;-54
2023/09/09 02:18:40;;;;;;;9.20;6.80;;;15.40;99.90;;;;;;7290141;32;20282;-54
2023/09/09 02:22:42;;;;;;;9.98;7.03;;;15.30;99.90;;;;;;7303149;32;20118;-54
2023/09/09 02:26:43;;;;;;;10.90;6.07;;;15.30;99.90;;;;;;7299241;32;20830;-54
2023/09/09 02:30:45;;;;;;;11.23;7.32;;;15.30;99.90;;;;;;7295164;32;20096;-54
2023/09/09 02:34:47;;;;;;;10.15;6.60;;;15.20;99.90;;;;;;7274159;32;20111;-54
2023/09/09 02:38:49;;;;;;;8.20;6.25;;;15.20;99.90;;;;;;7284999;32;20112;-54
2023/09/09 02:42:50;;;;;;;10.20;6.68;;;15.20;99.90;;;;;;7303444;32;20879;-54
2023/09/09 02:46:52;;;;;;;11.02;6.72;;;15.20;99.90;;;;;;7303959;32;20191;-54
2023/09/09 02:50:54;;;;;;;10.80;6.60;;;15.20;99.90;;;;;;7283180;32;20187;-54
2023/09/09 02:54:56;;;;;;;10.68;7.10;;;15.10;99.90;;;;;;7279700;32;20123;-54
2023/09/09 02:58:58;;;;;;;11.73;6.90;;;15.10;99.90;;;;;;7274770;32;20221;-54
2023/09/09 03:02:59;;;;;;;7.75;6.32;;;15.10;99.90;;;;;;7288714;32;20201;-55
2023/09/09 03:07:02;;;;;;;11.18;7.03;;;15.10;99.90;;;;;;7297528;32;20238;-53
2023/09/09 03:11:03;;;;;;;9.80;6.93;;;15.10;99.90;;;;;;7285443;32;20096;-54
2023/09/09 03:15:06;;;;;;;11.48;7.05;;;15.10;99.90;;;;;;7288415;32;20293;-54
2023/09/09 03:19:07;;;;;;;6.43;5.75;;;15.00;99.90;;;;;;7276475;32;20582;-55
2023/09/09 03:23:09;;;;;;;11.95;7.00;;;15.00;99.90;;;;;;7285189;32;20100;-54
2023/09/09 03:27:11;;;;;;;11.12;6.53;;;14.90;99.90;;;;;;7301302;32;20151;-54
2023/09/09 03:31:13;;;;;;;11.80;6.57;;;14.90;99.90;;;;;;7292345;32;20387;-54
2023/09/09 03:35:15;;;;;;;8.38;6.85;;;14.80;99.90;;;;;;7288160;32;20607;-54
2023/09/09 03:39:17;;;;;;;12.73;6.90;;;14.80;99.90;;;;;;7273629;32;20222;-55
2023/09/09 03:43:18;;;;;;;10.77;7.10;;;14.80;99.90;;;;;;7298906;32;20103;-54
2023/09/09 03:47:21;;;;;;;11.00;6.18;;;14.80;99.90;;;;;;7302798;32;20095;-54
2023/09/09 03:51:23;;;;;;;11.25;7.43;;;14.80;99.90;;;;;;7284667;32;20100;-54
2023/09/09 03:55:25;;;;;;;8.57;6.57;;;14.80;99.90;;;;;;7291803;32;20202;-54
2023/09/09 03:59:29;;;;;;;8.60;6.85;;;14.70;99.90;;;;;;7287699;32;20108;-54
2023/09/09 04:03:35;;;;;;;9.38;7.00;;;14.70;99.90;;;;;;7281429;32;20568;-55
2023/09/09 04:07:43;;;;;;;11.95;7.03;;;14.70;99.90;;;;;;7283359;32;20096;-54
2023/09/09 04:11:45;;;;;;;11.93;7.30;;;14.70;99.90;;;;;;7287551;32;20252;-54
2023/09/09 04:15:46;;;;;;;10.13;7.12;;;14.60;99.90;;;;;;7296177;32;20245;-54
2023/09/09 04:19:49;;;;;;;9.82;6.50;;;14.60;99.90;;;;;;7292345;32;20101;-55
2023/09/09 04:23:50;;;;;;;10.10;6.72;;;14.50;99.90;;;;;;7304874;32;20131;-54
2023/09/09 04:27:52;;;;;;;9.98;6.35;;;14.50;99.90;;;;;;7287318;32;20536;-54
2023/09/09 04:31:54;;;;;;;11.98;6.53;;;14.50;99.90;;;;;;7302411;32;20126;-54
2023/09/09 04:35:56;;;;;;;10.25;6.97;;;14.50;99.90;;;;;;7290951;32;20108;-54
2023/09/09 04:39:58;;;;;;;7.40;6.12;;;14.50;99.90;;;;;;7290316;32;20116;-54
2023/09/09 04:44:00;;;;;;;9.48;6.22;;;14.50;99.90;;;;;;7287660;32;20436;-54
2023/09/09 04:48:02;;;;;;;10.40;6.32;;;14.40;99.90;;;;;;7301719;32;20097;-54
2023/09/09 04:52:05;;;;;;;9.88;6.25;;;14.40;99.90;;;;;;7283608;32;20108;-54
2023/09/09 04:56:06;;;;;;;9.07;6.25;;;14.40;99.90;;;;;;7304170;32;20642;-54
2023/09/09 05:00:09;;;;;;;10.73;6.60;;;14.40;99.90;;;;;;7290846;32;21576;-55
2023/09/09 05:04:11;;;;;;;10.52;6.30;;;14.40;99.90;;;;;;7295965;32;20495;-54
2023/09/09 05:08:12;;;;;;;8.80;6.60;;;14.40;99.90;;;;;;7299982;32;20104;-54
2023/09/09 05:12:14;;;;;;;9.88;6.32;;;14.40;99.90;;;;;;7296232;32;20168;-54
2023/09/09 05:16:16;;;;;;;9.30;6.45;;;14.40;99.90;;;;;;7297653;32;20561;-54
2023/09/09 05:20:17;;;;;;;8.55;6.85;;;14.40;99.90;;;;;;7292595;32;20150;-54
2023/09/09 05:24:19;;;;;;;10.93;6.18;;;14.40;99.90;;;;;;7287901;32;20104;-57
2023/09/09 05:28:21;;;;;;;11.10;7.07;;;14.30;99.90;;;;;;7296155;32;20135;-57
2023/09/09 05:32:23;;;;;;;12.52;7.53;;;14.40;99.90;;;;;;7297479;32;20522;-57
2023/09/09 05:36:25;;;;;;;14.13;8.00;;;14.40;99.90;;;;;;7295478;32;20308;-56
2023/09/09 05:40:26;;;;;;;12.95;7.90;;;14.40;99.90;;;;;;7293183;32;20199;-57
2023/09/09 05:44:29;;;;;;;10.27;7.80;;;14.40;99.90;;;;;;7294410;32;20748;-57
2023/09/09 05:48:31;;;;;;;11.75;7.57;;;14.50;99.90;;;;;;7295295;32;20104;-57
2023/09/09 05:52:33;;;;;;;13.60;7.03;;;14.60;99.90;;;;;;7294707;32;20145;-57
2023/09/09 05:56:35;;;;;;;10.15;6.35;;;14.70;99.90;;;;;;7297355;32;20960;-56
2023/09/09 06:00:37;;;;;;;10.02;7.55;;;14.70;99.90;;;;;;7291529;32;20129;-57
2023/09/09 06:04:38;;;;;;;9.95;7.00;;;14.80;99.90;;;;;;7298460;32;20168;-57
2023/09/09 06:08:40;;;;;;;12.13;7.93;;;14.90;99.90;;;;;;7279597;32;20772;-57
2023/09/09 06:12:42;;;;;;;9.88;7.85;;;15.00;99.90;;;;;;7283057;32;20175;-58
2023/09/09 06:16:44;;;;;;;11.55;7.57;;;15.10;99.90;;;;;;7302396;32;20198;-57
2023/09/09 06:20:52;;;;;;;10.18;7.25;;;15.20;99.90;;;;;;7300264;32;20336;-58
2023/09/09 06:24:54;;;;;;;9.52;7.07;;;15.30;99.90;;;;;;7300252;32;20157;-57
2023/09/09 06:28:56;;;;;;;12.55;6.70;;;15.50;99.90;;;;;;7272610;32;20199;-57
2023/09/09 06:32:58;;;;;;;8.10;6.47;;;15.70;99.90;;;;;;7270795;32;20233;-55
2023/09/09 06:36:59;;;;;;;7.10;6.40;;;15.90;99.90;;;;;;7295594;32;20104;-55
2023/09/09 06:41:01;;;;;;;12.60;7.47;;;16.00;99.90;;;;;;7297997;32;20188;-55
2023/09/09 06:45:04;;;;;;;8.75;7.55;;;16.20;99.90;;;;;;7300784;32;20255;-55
2023/09/09 06:49:05;;;;;;;10.40;7.50;;;16.40;99.90;;;;;;7274621;32;20272;-55
2023/09/09 06:53:07;;;;;;;10.77;7.62;;;16.60;99.90;;;;;;7296812;32;20104;-53
2023/09/09 06:57:09;;;;;;;8.10;7.30;;;16.70;99.90;;;;;;7292298;32;20128;-52
2023/09/09 07:01:11;;;;;;;8.02;7.00;;;16.90;99.90;;;;;;7281012;32;20605;-53
2023/09/09 07:05:17;;;;;;;9.15;6.93;;;17.10;99.90;;;;;;7292614;32;20298;-53
2023/09/09 07:09:20;;;;;;;9.63;6.80;;;17.40;99.90;;;;;;7275096;32;20141;-53
2023/09/09 07:13:23;;;;;;;7.75;6.07;;;17.60;99.90;;;;;;7283012;32;20496;-53
2023/09/09 07:17:25;;;;;;;9.10;6.35;;;17.80;99.90;;;;;;7278142;32;20607;-55
2023/09/09 07:21:27;;;;;;;8.80;5.85;;;18.00;99.90;;;;;;7299062;32;20214;-53
2023/09/09 07:25:28;;;;;;;9.05;6.12;;;18.30;99.90;;;;;;7298705;32;20099;-53
2023/09/09 07:29:30;;;;;;;7.10;5.37;;;18.40;99.90;;;;;;7302111;32;20245;-56
2023/09/09 07:33:32;;;;;;;7.12;6.25;;;18.60;99.90;;;;;;7298981;32;20215;-55
2023/09/09 07:37:34;;;;;;;6.90;6.18;;;18.80;99.90;;;;;;7303192;32;20092;-55
2023/09/09 07:41:36;;;;;;;6.20;5.60;;;19.10;99.90;;;;;;7304221;32;20111;-55
2023/09/09 07:45:37;;;;;;;6.40;5.50;;;19.30;99.90;;;;;;7309291;32;20132;-55
2023/09/09 07:49:39;;;;;;;6.60;5.20;;;19.40;99.90;;;;;;7309123;32;20215;-55
2023/09/09 07:53:41;;;;;;;7.62;6.12;;;19.60;99.90;;;;;;7302411;32;20905;-56
2023/09/09 07:57:43;;;;;;;8.38;5.47;;;19.70;99.90;;;;;;7301204;32;20149;-57
2023/09/09 08:01:45;;;;;;;7.22;5.62;;;19.90;99.90;;;;;;7295321;32;20101;-56
2023/09/09 08:05:46;;;;;;;7.55;5.90;;;20.10;99.90;;;;;;7294575;32;20203;-56
2023/09/09 08:09:48;;;;;;;7.18;5.53;;;20.30;99.90;;;;;;7300878;32;20095;-57
2023/09/09 08:13:50;;;;;;;6.53;5.72;;;20.50;99.90;;;;;;7292698;32;20218;-56
2023/09/09 08:17:52;;;;;;;8.20;5.70;;;20.60;99.90;;;;;;7301721;32;20564;-57
2023/09/09 08:21:54;;;;;;;6.57;5.68;;;20.70;99.90;;;;;;7298854;32;20108;-56
2023/09/09 08:25:56;;;;;;;7.45;6.07;;;20.90;99.90;;;;;;7289814;32;20143;-56
2023/09/09 08:29:58;;;;;;;10.52;5.78;;;21.10;99.90;;;;;;7302160;32;20203;-56
2023/09/09 08:34:00;;;;;;;6.40;5.75;;;21.30;99.90;;;;;;7300644;32;20122;-56
2023/09/09 08:38:04;;;;;;;14.80;10.23;;;21.60;99.90;;;;;;7307849;32;20124;-56
2023/09/09 08:42:13;;;;;;;7.05;5.18;;;22.40;99.90;;;;;;7296545;32;20192;-57
2023/09/09 08:46:17;;;;;;;7.87;5.18;;;23.40;99.90;;;;;;7303583;32;20614;-57
2023/09/09 08:50:22;;;;;;;6.68;4.47;;;24.00;99.90;;;;;;7302230;32;20104;-57
2023/09/09 08:54:26;;;;;;;6.00;5.03;;;25.10;99.90;;;;;;7303585;32;20307;-57
2023/09/09 08:58:28;;;;;;;6.20;4.60;;;25.30;99.90;;;;;;7303613;32;20155;-55
2023/09/09 09:02:31;;;;;;;8.75;4.97;;;25.10;99.90;;;;;;7296876;32;20246;-56
2023/09/09 09:06:34;;;;;;;8.80;5.20;;;25.10;99.90;;;;;;7308674;32;20486;-56
2023/09/09 09:10:42;;;;;;;33.47;28.65;;;25.30;99.90;;;;;;7286854;32;20491;-56
2023/09/09 09:14:47;;;;;;;7.93;7.00;;;25.60;99.90;;;;;;7273321;32;20225;-57
2023/09/09 09:18:49;;;;;;;9.48;5.43;;;25.90;99.90;;;;;;7291973;32;20104;-56
2023/09/09 09:22:51;;;;;;;11.27;5.35;;;26.00;99.90;;;;;;7278157;32;20168;-57
2023/09/09 09:26:54;;;;;;;14.13;4.70;;;27.40;99.90;;;;;;7301143;32;20470;-56
2023/09/09 09:30:56;;;;;;;12.75;5.43;;;27.80;99.90;;;;;;7290433;32;20294;-56
2023/09/09 09:34:58;;;;;;;5.22;4.03;;;28.20;99.90;;;;;;7283363;32;20762;-57
2023/09/09 09:39:10;;;;;;;6.95;4.70;;;29.20;99.90;;;;;;7276888;32;20605;-57
2023/09/09 09:43:19;;;;;;;8.73;4.32;;;30.10;99.90;;;;;;7288324;32;20178;-57
2023/09/09 09:47:21;;;;;;;7.87;4.70;;;31.20;99.90;;;;;;7284721;32;20245;-57
2023/09/09 09:51:23;;;;;;;8.60;4.45;;;31.30;99.90;;;;;;7275633;32;20221;-56
2023/09/09 09:55:26;;;;;;;9.90;4.30;;;31.30;99.90;;;;;;7293727;32;20843;-56
2023/09/09 09:59:33;;;;;;;9.27;4.40;;;31.90;99.90;;;;;;7294611;32;20096;-56
2023/09/09 10:03:43;;;;;;;7.28;4.40;;;32.60;99.90;;;;;;7298480;32;20537;-57
2023/09/09 10:07:59;;;;;;;10.80;4.40;;;33.30;99.90;;;;;;7294274;32;20227;-57
2023/09/09 10:12:23;;;;;;;8.23;4.37;;;34.60;99.90;;;;;;7288914;32;20835;-56
2023/09/09 10:16:47;;;;;;;11.82;5.43;;;35.00;99.90;;;;;;7291852;32;20093;-56
2023/09/09 10:20:53;;;;;;;9.52;4.97;;;35.00;99.80;;;;;;7305777;32;20206;-57
2023/09/09 10:24:56;;;;;;;11.20;4.62;;;34.60;99.60;;;;;;7293209;32;20489;-57
2023/09/09 10:29:00;;;;;;;13.27;5.35;;;34.30;99.30;;;;;;7276843;32;20122;-57
2023/09/09 10:33:06;;;;;;;6.85;5.03;;;34.10;98.40;;;;;;7274560;32;20104;-56
2023/09/09 10:37:10;;;;;;;14.05;5.03;;;34.10;99.50;;;;;;7300883;32;20502;-56
2023/09/09 10:41:12;;;;;;;10.25;4.07;;;34.00;99.90;;;;;;7295351;32;20150;-57
2023/09/09 10:45:32;;;;;;;7.80;4.55;;;33.70;99.80;;;;;;7299864;32;20096;-57
2023/09/09 10:49:34;;;;;;;12.32;4.72;;;33.60;99.60;;;;;;7287129;32;20674;-56
2023/09/09 10:53:36;;;;;;;15.13;4.75;;;33.70;98.20;;;;;;7271442;32;20134;-56
2023/09/09 10:57:38;;;;;;;15.00;4.35;;;33.60;97.80;;;;;;7286820;32;20190;-56
2023/09/09 11:01:40;;;;;;;15.85;4.43;;;33.60;98.50;;;;;;7285794;32;20809;-56
2023/09/09 11:06:10;;;;;;;11.90;4.78;;;34.00;97.70;;;;;;7299878;32;20970;-56
2023/09/09 11:10:18;;;;;;;11.07;5.07;;;34.00;96.50;;;;;;7295629;32;20241;-56
2023/09/09 11:14:20;;;;;;;11.00;5.12;;;33.90;96.80;;;;;;7288103;32;20454;-57
2023/09/09 11:18:22;;;;;;;11.25;4.62;;;33.70;95.90;;;;;;7292488;32;20219;-57
2023/09/09 11:22:25;;;;;;;11.95;5.40;;;33.60;97.80;;;;;;7262148;32;20092;-56
2023/09/09 11:26:30;;;;;;;11.37;4.33;;;33.10;97.30;;;;;;7298672;32;20254;-56
2023/09/09 11:30:40;;;;;;;14.60;4.95;;;32.60;98.40;;;;;;7287161;32;20126;-57
2023/09/09 11:34:43;;;;;;;11.32;4.87;;;32.10;98.00;;;;;;7288089;32;20115;-56
2023/09/09 11:38:45;;;;;;;17.52;5.03;;;31.20;98.40;;;;;;7291349;32;20179;-56
2023/09/09 11:42:51;;;;;;;17.90;5.43;;;30.80;99.60;;;;;;7306458;32;20187;-56
2023/09/09 11:46:54;;;;;;;14.05;5.50;;;30.50;99.90;;;;;;7304872;32;20104;-56
2023/09/09 11:50:56;;;;;;;13.02;5.55;;;30.40;99.90;;;;;;7295270;32;20123;-56
2023/09/09 11:54:57;;;;;;;12.60;6.00;;;30.40;99.90;;;;;;7302567;32;20528;-57
2023/09/09 11:59:06;;;;;;;15.40;4.82;;;30.60;99.90;;;;;;7308151;32;20129;-57
2023/09/09 12:03:08;;;;;;;11.48;5.50;;;30.40;99.90;;;;;;7296345;32;20626;-58
2023/09/09 12:07:09;;;;;;;13.65;5.43;;;30.70;99.90;;;;;;7308711;32;20187;-57
2023/09/09 12:11:14;;;;;;;10.13;5.37;;;30.40;99.90;;;;;;7304642;32;20222;-57
2023/09/09 12:15:16;;;;;;;17.00;6.28;;;30.30;99.90;;;;;;7307879;32;20128;-56
2023/09/09 12:19:18;;;;;;;14.70;5.65;;;30.10;99.90;;;;;;7312686;32;20107;-57
2023/09/09 12:23:30;;;;;;;13.82;5.80;;;29.90;99.90;;;;;;7304262;32;20553;-57
2023/09/09 12:27:45;;;;;;;14.30;6.00;;;29.80;99.90;;;;;;7300220;32;20288;-57
2023/09/09 12:31:55;;;;;;;14.68;6.22;;;29.50;99.90;;;;;;7301840;32;20270;-56
2023/09/09 12:35:57;;;;;;;9.73;5.85;;;29.50;99.90;;;;;;7304964;32;20691;-57
2023/09/09 12:40:00;;;;;;;12.37;5.70;;;29.40;99.90;;;;;;7298664;32;20244;-56
2023/09/09 12:44:09;;;;;;;19.12;5.78;;;29.50;99.90;;;;;;7296143;32;20247;-56
2023/09/09 12:48:11;;;;;;;15.23;5.30;;;29.40;99.90;;;;;;7304964;32;20178;-55
2023/09/09 12:52:13;;;;;;;17.62;4.87;;;29.50;99.90;;;;;;7293031;32;20130;-55
2023/09/09 12:56:15;;;;;;;14.10;4.75;;;29.60;99.90;;;;;;7299512;32;20173;-55
2023/09/09 13:00:17;;;;;;;13.38;4.85;;;29.70;99.90;;;;;;7288129;32;20191;-56
2023/09/09 13:04:19;;;;;;;9.32;4.32;;;29.80;99.90;;;;;;7272180;32;20096;-55
2023/09/09 13:08:21;;;;;;;13.43;4.43;;;29.90;99.90;;;;;;7295780;32;20234;-56
2023/09/09 13:12:24;;;;;;;9.55;3.70;;;29.90;99.90;;;;;;7288155;32;20122;-56
2023/09/09 13:16:26;;;;;;;12.65;3.60;;;29.90;99.90;;;;;;7288753;32;20112;-56
2023/09/09 13:20:28;;;;;;;12.32;3.70;;;29.90;99.90;;;;;;7287900;32;20123;-56
2023/09/09 13:24:30;;;;;;;5.53;2.80;;;29.70;99.90;;;;;;7288353;32;20450;-56
2023/09/09 13:28:31;;;;;;;6.75;2.30;;;29.60;94.10;;;;;;7271939;32;20187;-56
2023/09/09 13:32:33;;;;;;;7.50;3.03;;;29.50;92.50;;;;;;7277796;32;20434;-53
2023/09/09 13:36:36;;;;;;;9.60;2.87;;;29.50;95.90;;;;;;7280197;32;20255;-56
2023/09/09 13:40:38;;;;;;;11.23;3.22;;;29.60;93.20;;;;;;7298059;32;20476;-57
2023/09/09 13:44:39;;;;;;;9.93;3.03;;;29.40;97.10;;;;;;7283820;32;20148;-56
2023/09/09 13:49:01;;;;;;;11.95;4.40;;;29.40;93.80;;;;;;7277479;32;20156;-56
2023/09/09 13:53:03;;;;;;;9.50;4.40;;;29.60;98.00;;;;;;7282733;32;20336;-56
2023/09/09 13:57:06;;;;;;;9.85;4.28;;;29.70;98.30;;;;;;7269892;32;20210;-56
2023/09/09 14:01:08;;;;;;;5.00;3.60;;;29.60;99.90;;;;;;7295632;32;20427;-56
2023/09/09 14:05:09;;;;;;;9.23;5.12;;;29.70;99.00;;;;;;7283200;32;20222;-56
2023/09/09 14:09:11;;;;;;;8.57;4.45;;;29.80;99.70;;;;;;7281201;32;20438;-56
2023/09/09 14:13:14;;;;;;;6.78;3.15;;;29.70;99.90;;;;;;7282223;32;20524;-56
2023/09/09 14:17:15;;;;;;;4.97;3.67;;;29.90;98.80;;;;;;7285558;32;20718;-56
2023/09/09 14:21:19;;;;;;;6.00;3.28;;;29.90;95.20;;;;;;7285322;32;20610;-55
2023/09/09 14:25:20;;;;;;;5.95;3.95;;;30.00;92.90;;;;;;7287273;32;20100;-56
2023/09/09 14:29:22;;;;;;;6.55;3.40;;;29.90;94.50;;;;;;7278911;32;20461;-56
2023/09/09 14:33:24;;;;;;;9.40;4.00;;;29.90;93.80;;;;;;7284133;32;20109;-56
2023/09/09 14:37:27;;;;;;;13.15;4.55;;;29.90;93.80;;;;;;7287631;32;20137;-56
2023/09/09 14:41:28;;;;;;;8.45;4.20;;;29.80;94.70;;;;;;7275186;32;20590;-57
2023/09/09 14:45:30;;;;;;;9.98;4.68;;;29.80;94.70;;;;;;7296552;32;20195;-57
2023/09/09 14:49:32;;;;;;;11.07;4.60;;;29.60;95.60;;;;;;7296113;32;20130;-56
2023/09/09 14:53:34;;;;;;;5.72;3.08;;;29.60;96.40;;;;;;7296615;32;20130;-56
2023/09/09 14:57:35;;;;;;;6.18;3.03;;;29.40;92.30;;;;;;7268297;32;20104;-56
2023/09/09 15:01:37;;;;;;;6.10;3.35;;;29.30;90.60;;;;;;7282326;32;20278;-57
2023/09/09 15:05:39;;;;;;;10.90;2.92;;;29.00;94.00;;;;;;7298749;32;20132;-57
2023/09/09 15:09:42;;;;;;;6.37;2.25;;;28.80;91.30;;;;;;7294924;32;20095;-57
2023/09/09 15:13:44;;;;;;;7.90;2.15;;;28.70;91.30;;;;;;7296300;32;20223;-57
2023/09/09 15:17:50;;;;;;;5.75;2.12;;;28.60;87.60;;;;;;7295182;32;20114;-57
2023/09/09 15:21:52;;;;;;;5.55;2.25;;;28.60;85.20;;;;;;7296166;32;20763;-57
2023/09/09 15:25:54;;;;;;;6.72;2.53;;;28.60;86.20;;;;;;7300640;32;20852;-57
2023/09/09 15:29:55;;;;;;;6.43;2.42;;;28.30;90.00;;;;;;7295920;32;20104;-57
2023/09/09 15:33:57;;;;;;;5.30;2.67;;;28.30;90.50;;;;;;7285664;32;20254;-56
2023/09/09 15:37:59;;;;;;;8.65;3.08;;;28.10;91.10;;;;;;7294790;32;20219;-56
2023/09/09 15:42:01;;;;;;;6.32;3.05;;;28.00;91.60;;;;;;7297424;32;20258;-56
2023/09/09 15:46:04;;;;;;;7.05;2.80;;;28.00;93.40;;;;;;7268598;32;20183;-56
2023/09/09 15:50:07;;;;;;;11.95;3.72;;;28.00;93.10;;;;;;7302444;32;20119;-55
2023/09/09 15:54:09;;;;;;;9.13;4.28;;;27.90;92.80;;;;;;7299513;32;20096;-56
2023/09/09 15:58:11;;;;;;;9.40;3.45;;;27.80;93.60;;;;;;7288182;32;20559;-56
2023/09/09 16:02:13;;;;;;;10.05;3.28;;;27.60;93.70;;;;;;7275956;32;20161;-56
2023/09/09 16:06:15;;;;;;;7.70;3.80;;;27.60;94.40;;;;;;7287465;32;20567;-56
2023/09/09 16:10:17;;;;;;;11.02;3.30;;;27.40;95.10;;;;;;7282563;32;20119;-55
2023/09/09 16:14:18;;;;;;;5.95;3.37;;;27.30;97.40;;;;;;7290839;32;20628;-55
2023/09/09 16:18:20;;;;;;;7.43;2.90;;;27.20;98.50;;;;;;7293946;32;20572;-56
2023/09/09 16:22:22;;;;;;;6.43;3.00;;;27.10;98.90;;;;;;7296733;32;20222;-56
2023/09/09 16:26:23;;;;;;;6.70;2.65;;;27.00;99.90;;;;;;7293747;32;20100;-56
2023/09/09 16:30:25;;;;;;;7.45;2.72;;;26.90;99.90;;;;;;7286293;32;20176;-55
2023/09/09 16:34:29;;;;;;;5.15;3.37;;;26.80;99.90;;;;;;7298464;32;20359;-55
2023/09/09 16:38:31;;;;;;;5.35;3.10;;;26.70;99.90;;;;;;7295408;32;20325;-55
2023/09/09 16:42:33;;;;;;;4.97;3.00;;;26.60;99.90;;;;;;7297621;32;20160;-56
2023/09/09 16:46:35;;;;;;;8.55;3.03;;;26.50;99.90;;;;;;7299772;32;20095;-56
2023/09/09 16:50:37;;;;;;;9.15;3.00;;;26.30;99.90;;;;;;7303515;32;20255;-56
2023/09/09 16:54:38;;;;;;;5.93;2.90;;;26.20;99.90;;;;;;7285055;32;20115;-56
2023/09/09 16:58:40;;;;;;;5.78;2.87;;;26.00;99.90;;;;;;7298402;32;20136;-55
2023/09/09 17:02:42;;;;;;;7.03;3.80;;;25.90;99.90;;;;;;7296294;32;20156;-56
2023/09/09 17:06:44;;;;;;;9.98;3.65;;;25.60;99.90;;;;;;7289540;32;20792;-55
2023/09/09 17:10:50;;;;;;;8.90;3.50;;;25.30;99.90;;;;;;7272200;32;20414;-56
2023/09/09 17:14:52;;;;;;;5.43;3.30;;;25.00;99.90;;;;;;7282598;32;20134;-56
2023/09/09 17:18:54;;;;;;;9.60;3.42;;;24.80;99.90;;;;;;7291622;32;20093;-56
2023/09/09 17:22:55;;;;;;;9.18;3.87;;;24.60;99.90;;;;;;7284222;32;20834;-56
2023/09/09 17:26:58;;;;;;;6.43;3.75;;;24.30;99.90;;;;;;7276140;32;20222;-56
2023/09/09 17:30:59;;;;;;;9.70;4.18;;;24.20;99.90;;;;;;7285824;32;20219;-56
2023/09/09 17:35:01;;;;;;;6.87;3.70;;;23.90;99.90;;;;;;7287105;32;20108;-56
2023/09/09 17:39:07;;;;;;;10.98;4.37;;;23.70;99.90;;;;;;7272522;32;21005;-55
2023/09/09 17:43:09;;;;;;;8.75;4.65;;;23.40;99.90;;;;;;7292040;32;20123;-56
2023/09/09 17:47:11;;;;;;;8.05;4.35;;;23.30;99.90;;;;;;7281884;32;20561;-55
2023/09/09 17:51:13;;;;;;;6.45;4.32;;;23.00;99.90;;;;;;7287042;32;20185;-55
2023/09/09 17:55:15;;;;;;;9.85;5.25;;;22.80;99.90;;;;;;7287843;32;20403;-56
2023/09/09 17:59:16;;;;;;;9.27;6.80;;;22.50;99.90;;;;;;7293857;32;20095;-55
2023/09/09 18:03:18;;;;;;;9.63;5.22;;;22.60;99.90;;;;;;7256414;32;20207;-55
2023/09/09 18:07:20;;;;;;;12.77;4.80;;;22.30;99.90;;;;;;7286694;32;20118;-55
2023/09/09 18:11:22;;;;;;;9.52;4.90;;;22.00;99.90;;;;;;7286630;32;20765;-53
2023/09/09 18:15:24;;;;;;;11.23;5.45;;;21.90;99.90;;;;;;7289099;32;20155;-54
2023/09/09 18:19:25;;;;;;;9.88;4.60;;;21.70;99.90;;;;;;7290945;32;20680;-55
2023/09/09 18:23:27;;;;;;;8.20;4.57;;;21.50;99.90;;;;;;7259047;32;20512;-54
2023/09/09 18:27:29;;;;;;;14.00;5.32;;;21.30;99.90;;;;;;7285532;32;20450;-55
2023/09/09 18:31:31;;;;;;;11.23;5.60;;;21.20;99.90;;;;;;7294837;32;20238;-54
2023/09/09 18:35:32;;;;;;;7.68;4.55;;;21.10;99.90;;;;;;7298362;32;20175;-55
2023/09/09 18:39:35;;;;;;;12.23;4.78;;;20.90;99.90;;;;;;7297727;32;20221;-55
2023/09/09 18:43:37;;;;;;;12.07;5.43;;;20.70;99.90;;;;;;7295684;32;20504;-55
2023/09/09 18:47:39;;;;;;;11.15;4.95;;;20.50;99.90;;;;;;7292292;32;20262;-55
2023/09/09 18:51:41;;;;;;;7.85;5.20;;;20.30;99.90;;;;;;7289990;32;20100;-54
2023/09/09 18:55:42;;;;;;;13.00;5.60;;;20.20;99.90;;;;;;7297234;32;20177;-55
2023/09/09 18:59:45;;;;;;;11.75;5.22;;;20.00;99.90;;;;;;7298166;32;20099;-54
2023/09/09 19:03:46;;;;;;;13.25;6.93;;;19.90;99.90;;;;;;7295503;32;20557;-55
2023/09/09 19:07:48;;;;;;;10.65;6.00;;;19.70;99.90;;;;;;7297403;32;20574;-54
2023/09/09 19:11:53;;;;;;;8.90;6.12;;;19.70;99.90;;;;;;7296581;32;20154;-55
2023/09/09 19:15:55;;;;;;;8.95;6.22;;;19.50;99.90;;;;;;7302519;32;20115;-55
2023/09/09 19:20:01;;;;;;;9.80;5.32;;;19.40;99.90;;;;;;7301594;32;20122;-54
2023/09/09 19:24:04;;;;;;;16.80;6.93;;;19.30;99.90;;;;;;7300487;32;20566;-55
2023/09/09 19:28:07;;;;;;;9.77;5.55;;;19.30;99.90;;;;;;7290462;32;20368;-54
2023/09/09 19:32:09;;;;;;;10.75;5.87;;;19.30;99.90;;;;;;7283289;32;20118;-55
2023/09/09 19:36:11;;;;;;;9.00;6.25;;;19.10;99.90;;;;;;7285769;32;20134;-54
2023/09/09 19:40:13;;;;;;;15.85;7.75;;;19.00;99.90;;;;;;7290557;32;20128;-54
2023/09/09 19:44:15;;;;;;;18.02;8.65;;;19.00;99.90;;;;;;7300105;32;20128;-55
2023/09/09 19:48:16;;;;;;;19.30;7.12;;;18.90;99.90;;;;;;7297416;32;20104;-54
2023/09/09 19:52:19;;;;;;;19.83;6.50;;;18.80;99.90;;;;;;7305581;32;20347;-55
2023/09/09 19:56:21;;;;;;;28.58;8.95;;;18.80;99.90;;;;;;7309143;32;20209;-55
2023/09/09 20:00:23;;;;;;;24.42;7.50;;;18.70;99.90;;;;;;7303832;32;20288;-56
2023/09/09 20:04:25;;;;;;;11.52;6.68;;;18.60;99.90;;;;;;7284000;32;20191;-55
2023/09/09 20:08:27;;;;;;;12.48;7.37;;;18.60;99.90;;;;;;7282301;32;20755;-55
2023/09/09 20:12:28;;;;;;;12.40;7.45;;;18.50;99.90;;;;;;7291311;32;20612;-55
2023/09/09 20:16:30;;;;;;;14.77;6.78;;;18.40;99.90;;;;;;7292080;32;20213;-55
2023/09/09 20:20:32;;;;;;;13.07;7.60;;;18.30;99.90;;;;;;7298777;32;20107;-55
2023/09/09 20:24:34;;;;;;;12.02;6.40;;;18.30;99.90;;;;;;7298533;32;20671;-54
2023/09/09 20:28:36;;;;;;;10.23;6.60;;;18.30;99.90;;;;;;7269235;32;20241;-55
2023/09/09 20:32:38;;;;;;;9.55;6.65;;;18.20;99.90;;;;;;7298902;32;20914;-55
2023/09/09 20:36:40;;;;;;;10.00;6.32;;;18.10;99.90;;;;;;7304428;32;20279;-55
2023/09/09 20:40:41;;;;;;;11.40;7.00;;;18.10;99.90;;;;;;7311134;32;20123;-54
2023/09/09 20:44:43;;;;;;;15.13;7.28;;;18.00;99.90;;;;;;7309882;32;20233;-54
2023/09/09 20:48:45;;;;;;;12.57;7.62;;;17.90;99.90;;;;;;7304805;32;20128;-54
2023/09/09 20:52:51;;;;;;;13.40;6.82;;;17.90;99.90;;;;;;7304865;32;20112;-54
2023/09/09 20:56:53;;;;;;;10.57;7.22;;;17.90;99.90;;;;;;7298260;32;20126;-55